Time;durP1;ratioP1;P1;durP2;ratioP2;P2;SDS_P1;SDS_P2;PMS_P1;PMS_P2;Temp;Humidity;BMP_temperature;BMP_pressure;BME280_temperature;BME280_humidity;BME280_pressure;Samples;Min_cycle;Max_cycle;Signal;HPM_P1;HPM_P2
2022/08/22 00:00:23;;;;;;;9.93;3.33;;;;;;;;;;6272293;22;19995;-88
2022/08/22 00:02:52;;;;;;;8.43;3.75;;;;;;;;;;6272880;22;20007;-88
2022/08/22 00:05:42;;;;;;;10.20;4.53;;;;;;;;;;6272729;22;20339;-88
2022/08/22 00:08:07;;;;;;;13.98;4.18;;;;;;;;;;6272487;22;20490;-88
2022/08/22 00:10:47;;;;;;;9.02;3.78;;;;;;;;;;6272369;22;20043;-88
2022/08/22 00:13:39;;;;;;;10.98;3.70;;;;;;;;;;6273208;22;20011;-88
2022/08/22 00:16:13;;;;;;;13.75;3.97;;;;;;;;;;6272724;22;20011;-87
2022/08/22 00:18:48;;;;;;;17.15;4.20;;;;;;;;;;6273386;22;20043;-87
2022/08/22 00:21:21;;;;;;;10.63;3.93;;;;;;;;;;6269916;22;20031;-88
2022/08/22 00:23:51;;;;;;;12.30;4.35;;;;;;;;;;6273695;22;20307;-88
2022/08/22 00:26:36;;;;;;;20.13;4.05;;;;;;;;;;6273483;22;20042;-88
2022/08/22 00:29:13;;;;;;;12.73;3.92;;;;;;;;;;6270833;22;20011;-88
2022/08/22 00:31:42;;;;;;;16.40;4.30;;;;;;;;;;6271450;22;20007;-88
2022/08/22 00:34:24;;;;;;;17.75;4.80;;;;;;;;;;6273716;22;20007;-88
2022/08/22 00:36:54;;;;;;;14.45;4.10;;;;;;;;;;6272222;22;20010;-88
2022/08/22 00:39:29;;;;;;;11.70;4.13;;;;;;;;;;6272881;22;20387;-87
2022/08/22 00:41:55;;;;;;;8.30;3.83;;;;;;;;;;6272788;22;20057;-88
2022/08/22 00:44:39;;;;;;;12.23;4.40;;;;;;;;;;6299677;22;20000;-88
2022/08/22 00:47:24;;;;;;;13.43;4.40;;;;;;;;;;6270344;22;20014;-88
2022/08/22 00:49:50;;;;;;;13.88;4.10;;;;;;;;;;6273772;22;20588;-88
2022/08/22 00:52:52;;;;;;;10.55;4.20;;;;;;;;;;6272077;22;20007;-88
2022/08/22 00:55:38;;;;;;;12.02;4.13;;;;;;;;;;6146172;22;20023;-88
2022/08/22 00:58:07;;;;;;;10.82;4.22;;;;;;;;;;6271819;22;20093;-88
2022/08/22 01:00:37;;;;;;;10.93;4.15;;;;;;;;;;6272779;22;20018;-88
2022/08/22 01:03:21;;;;;;;15.90;4.55;;;;;;;;;;6272278;22;20029;-88
2022/08/22 01:05:57;;;;;;;12.07;4.10;;;;;;;;;;6269947;22;20003;-87
2022/08/22 01:08:39;;;;;;;11.07;4.30;;;;;;;;;;6300792;22;20908;-88
2022/08/22 01:11:16;;;;;;;9.07;4.07;;;;;;;;;;6299787;22;20853;-88
2022/08/22 01:13:49;;;;;;;12.77;4.93;;;;;;;;;;6272618;22;20038;-88
2022/08/22 01:16:15;;;;;;;15.23;4.38;;;;;;;;;;6271680;22;20066;-88
2022/08/22 01:18:55;;;;;;;11.23;4.07;;;;;;;;;;6271074;22;20011;-88
2022/08/22 01:21:43;;;;;;;14.10;4.40;;;;;;;;;;6273178;22;20003;-88
2022/08/22 01:24:28;;;;;;;13.48;3.83;;;;;;;;;;6273756;22;20070;-88
2022/08/22 01:27:00;;;;;;;11.18;3.75;;;;;;;;;;6268468;22;20011;-87
2022/08/22 01:29:39;;;;;;;9.70;4.00;;;;;;;;;;6271026;22;20492;-87
2022/08/22 01:32:23;;;;;;;12.10;4.82;;;;;;;;;;6272112;22;20098;-87
2022/08/22 01:35:08;;;;;;;17.73;4.53;;;;;;;;;;6299030;22;20014;-87
2022/08/22 01:37:34;;;;;;;16.13;4.03;;;;;;;;;;6271002;22;20432;-87
2022/08/22 01:40:00;;;;;;;14.40;4.45;;;;;;;;;;6299068;22;20053;-87
2022/08/22 01:42:38;;;;;;;8.18;4.18;;;;;;;;;;6272216;22;20332;-87
2022/08/22 01:45:19;;;;;;;14.90;4.68;;;;;;;;;;6272357;22;20058;-87
2022/08/22 01:47:55;;;;;;;13.20;5.18;;;;;;;;;;6271541;22;20050;-87
2022/08/22 01:50:24;;;;;;;12.43;4.15;;;;;;;;;;6272546;22;20010;-87
2022/08/22 01:53:21;;;;;;;14.35;4.53;;;;;;;;;;6268332;22;20026;-87
2022/08/22 01:55:47;;;;;;;;;;;;;;;;;;6272805;22;20015;-87
2022/08/22 01:58:22;;;;;;;10.38;3.83;;;;;;;;;;6269904;22;20422;-87
2022/08/22 02:01:01;;;;;;;13.27;4.13;;;;;;;;;;6271471;22;20431;-87
2022/08/22 02:03:30;;;;;;;17.20;4.38;;;;;;;;;;6271636;22;19999;-87
2022/08/22 02:06:07;;;;;;;11.88;3.90;;;;;;;;;;6298496;22;20011;-88
2022/08/22 02:08:40;;;;;;;9.52;4.57;;;;;;;;;;6271653;22;20046;-87
2022/08/22 02:11:08;;;;;;;16.48;4.60;;;;;;;;;;6272178;22;20351;-87
2022/08/22 02:13:56;;;;;;;10.02;4.25;;;;;;;;;;6272229;22;20011;-87
2022/08/22 02:16:25;;;;;;;15.77;4.00;;;;;;;;;;6270421;22;20313;-87
2022/08/22 02:19:07;;;;;;;9.38;4.45;;;;;;;;;;6272112;22;20331;-87
2022/08/22 02:21:56;;;;;;;8.73;3.55;;;;;;;;;;6271422;22;20003;-87
2022/08/22 02:24:40;;;;;;;16.85;6.05;;;;;;;;;;6299042;22;20011;-87
2022/08/22 02:27:12;;;;;;;10.75;3.88;;;;;;;;;;6270497;22;20014;-87
2022/08/22 02:29:42;;;;;;;11.07;4.47;;;;;;;;;;6271704;22;20168;-87
2022/08/22 02:32:15;;;;;;;16.45;4.68;;;;;;;;;;6271362;22;20018;-87
2022/08/22 02:35:02;;;;;;;11.13;4.60;;;;;;;;;;6271215;22;20491;-87
2022/08/22 02:37:31;;;;;;;8.30;4.22;;;;;;;;;;6271344;22;20003;-87
2022/08/22 02:40:16;;;;;;;8.98;3.78;;;;;;;;;;6272529;22;20414;-88
2022/08/22 02:42:47;;;;;;;11.75;4.38;;;;;;;;;;6273209;22;20093;-86
2022/08/22 02:45:49;;;;;;;11.27;4.63;;;;;;;;;;6272164;22;20046;-87
2022/08/22 02:48:33;;;;;;;12.73;4.07;;;;;;;;;;6120268;23;20012;-87
2022/08/22 02:51:09;;;;;;;10.43;4.05;;;;;;;;;;6260238;22;20007;-88
2022/08/22 02:53:35;;;;;;;;;;;;;;;;;;6299038;22;20037;-88
2022/08/22 02:56:21;;;;;;;10.07;3.90;;;;;;;;;;6272031;22;19918;-88
2022/08/22 02:58:47;;;;;;;16.63;4.13;;;;;;;;;;6274016;22;20007;-88
2022/08/22 03:01:16;;;;;;;13.00;4.72;;;;;;;;;;6270448;22;20098;-88
2022/08/22 03:03:45;;;;;;;15.80;5.57;;;;;;;;;;6299429;22;20442;-88
2022/08/22 03:06:31;;;;;;;14.68;4.68;;;;;;;;;;6271257;22;20007;-88
2022/08/22 03:09:00;;;;;;;11.82;4.60;;;;;;;;;;6272673;22;20043;-88
2022/08/22 03:11:29;;;;;;;19.38;4.60;;;;;;;;;;6272093;22;20458;-88
2022/08/22 03:14:03;;;;;;;17.58;4.00;;;;;;;;;;6272436;22;20003;-88
2022/08/22 03:16:48;;;;;;;15.77;4.50;;;;;;;;;;6270239;22;20003;-88
2022/08/22 03:19:14;;;;;;;16.38;4.32;;;;;;;;;;6271414;22;20004;-88
2022/08/22 03:21:59;;;;;;;11.93;4.38;;;;;;;;;;6271665;22;20007;-88
2022/08/22 03:24:39;;;;;;;16.77;4.20;;;;;;;;;;6273526;22;20490;-87
2022/08/22 03:27:05;;;;;;;12.65;4.72;;;;;;;;;;6299572;22;20092;-88
2022/08/22 03:29:39;;;;;;;8.63;4.22;;;;;;;;;;6275097;22;20015;-87
2022/08/22 03:32:19;;;;;;;10.90;4.43;;;;;;;;;;6274860;22;20041;-87
2022/08/22 03:35:11;;;;;;;9.25;4.70;;;;;;;;;;6273323;22;20007;-87
2022/08/22 03:37:39;;;;;;;23.23;4.57;;;;;;;;;;6266037;22;20011;-88
2022/08/22 03:40:24;;;;;;;10.45;4.70;;;;;;;;;;6272567;22;20015;-88
2022/08/22 03:43:25;;;;;;;12.48;4.75;;;;;;;;;;6274799;22;20207;-87
2022/08/22 03:46:10;;;;;;;13.70;4.18;;;;;;;;;;6121405;23;20446;-87
2022/08/22 03:48:37;;;;;;;16.08;4.97;;;;;;;;;;6263034;22;20017;-88
2022/08/22 03:51:22;;;;;;;17.58;5.47;;;;;;;;;;6271068;22;20045;-88
2022/08/22 03:54:07;;;;;;;15.45;4.32;;;;;;;;;;6273462;22;20017;-87
2022/08/22 03:56:33;;;;;;;13.77;4.97;;;;;;;;;;6273017;22;20015;-87
2022/08/22 03:59:18;;;;;;;9.70;3.92;;;;;;;;;;6272942;22;20003;-87
2022/08/22 04:01:44;;;;;;;15.00;4.80;;;;;;;;;;6273347;22;20003;-87
2022/08/22 04:04:10;;;;;;;15.48;5.45;;;;;;;;;;6301845;22;20010;-87
2022/08/22 04:06:57;;;;;;;15.23;5.53;;;;;;;;;;6298135;22;20139;-87
2022/08/22 04:09:26;;;;;;;14.07;4.90;;;;;;;;;;6273631;22;20447;-87
2022/08/22 04:12:07;;;;;;;20.23;4.80;;;;;;;;;;6272718;22;20007;-87
2022/08/22 04:14:34;;;;;;;10.85;4.53;;;;;;;;;;6273009;22;20007;-87
2022/08/22 04:17:19;;;;;;;17.63;5.18;;;;;;;;;;6272248;22;20090;-86
2022/08/22 04:20:08;;;;;;;15.18;6.18;;;;;;;;;;6271028;22;20384;-88
2022/08/22 04:22:59;;;;;;;16.67;4.57;;;;;;;;;;6300422;22;19999;-87
2022/08/22 04:25:47;;;;;;;14.40;4.97;;;;;;;;;;6272144;22;20379;-87
2022/08/22 04:28:18;;;;;;;10.77;4.90;;;;;;;;;;6271915;22;20443;-87
2022/08/22 04:30:55;;;;;;;9.77;4.40;;;;;;;;;;6272965;22;20013;-87
2022/08/22 04:33:21;;;;;;;15.50;4.47;;;;;;;;;;6272484;22;20558;-87
2022/08/22 04:35:59;;;;;;;13.38;5.03;;;;;;;;;;6271230;22;20039;-87
2022/08/22 04:38:25;;;;;;;14.80;4.93;;;;;;;;;;6273865;22;20011;-87
2022/08/22 04:40:55;;;;;;;10.30;5.38;;;;;;;;;;6273300;22;20323;-87
2022/08/22 04:43:24;;;;;;;10.07;5.30;;;;;;;;;;6298553;22;19999;-88
2022/08/22 04:45:54;;;;;;;21.77;10.35;;;;;;;;;;6270562;22;20007;-87
2022/08/22 04:48:36;;;;;;;24.20;8.23;;;;;;;;;;6299960;22;20568;-87
2022/08/22 04:51:12;;;;;;;20.45;6.15;;;;;;;;;;6269478;22;20439;-87
2022/08/22 04:54:04;;;;;;;16.90;5.90;;;;;;;;;;6269748;22;20015;-87
2022/08/22 04:56:50;;;;;;;16.70;4.75;;;;;;;;;;6300483;22;20012;-88
2022/08/22 04:59:18;;;;;;;25.33;5.68;;;;;;;;;;6274080;22;20015;-88
2022/08/22 05:01:46;;;;;;;10.20;4.57;;;;;;;;;;6273795;22;20055;-88
2022/08/22 05:04:18;;;;;;;14.25;5.28;;;;;;;;;;6274014;22;20003;-88
2022/08/22 05:06:47;;;;;;;17.17;4.82;;;;;;;;;;6272303;22;20080;-88
2022/08/22 05:09:17;;;;;;;15.82;5.82;;;;;;;;;;6300598;22;20825;-88
2022/08/22 05:11:45;;;;;;;12.13;5.38;;;;;;;;;;6271356;22;20004;-87
2022/08/22 05:14:15;;;;;;;18.33;4.95;;;;;;;;;;6272484;22;20311;-88
2022/08/22 05:16:43;;;;;;;17.77;5.82;;;;;;;;;;6271631;22;20011;-87
2022/08/22 05:19:12;;;;;;;20.38;5.53;;;;;;;;;;6273255;22;20504;-88
2022/08/22 05:21:40;;;;;;;11.90;5.40;;;;;;;;;;6299823;22;20007;-88
2022/08/22 05:24:08;;;;;;;13.55;6.03;;;;;;;;;;6273766;22;20011;-88
2022/08/22 05:26:36;;;;;;;14.88;5.57;;;;;;;;;;6271593;22;20102;-88
2022/08/22 05:29:06;;;;;;;14.50;4.95;;;;;;;;;;6274256;22;20462;-88
2022/08/22 05:31:35;;;;;;;16.75;6.22;;;;;;;;;;6272475;22;20451;-88
2022/08/22 05:34:03;;;;;;;8.82;4.88;;;;;;;;;;6273112;22;20454;-88
2022/08/22 05:36:38;;;;;;;15.82;5.45;;;;;;;;;;6270427;22;20518;-87
2022/08/22 05:39:08;;;;;;;14.85;5.32;;;;;;;;;;6274141;22;20007;-88
2022/08/22 05:41:36;;;;;;;19.88;5.82;;;;;;;;;;6271148;22;20014;-87
2022/08/22 05:44:02;;;;;;;15.23;5.85;;;;;;;;;;6272087;22;20562;-88
2022/08/22 05:46:35;;;;;;;15.15;6.25;;;;;;;;;;6270964;22;20446;-87
2022/08/22 05:49:02;;;;;;;14.68;5.53;;;;;;;;;;6300413;22;20074;-88
2022/08/22 05:51:52;;;;;;;15.60;5.10;;;;;;;;;;6272082;22;20404;-88
2022/08/22 05:54:21;;;;;;;20.13;6.60;;;;;;;;;;6203456;22;20015;-88
2022/08/22 05:56:51;;;;;;;13.73;6.20;;;;;;;;;;6272909;22;20014;-88
2022/08/22 05:59:26;;;;;;;15.77;6.30;;;;;;;;;;6272193;22;20046;-87
2022/08/22 06:01:52;;;;;;;21.88;6.28;;;;;;;;;;6297884;22;19996;-87
2022/08/22 06:04:21;;;;;;;15.23;5.57;;;;;;;;;;6273687;22;20500;-87
2022/08/22 06:06:50;;;;;;;19.20;6.00;;;;;;;;;;6273322;22;20007;-88
2022/08/22 06:09:21;;;;;;;13.50;5.90;;;;;;;;;;6273606;22;20033;-87
2022/08/22 06:11:59;;;;;;;13.65;5.28;;;;;;;;;;6271840;22;20181;-88
2022/08/22 06:14:44;;;;;;;25.02;7.35;;;;;;;;;;6272329;22;20470;-88
2022/08/22 06:17:16;;;;;;;16.75;5.80;;;;;;;;;;6270129;22;20468;-89
2022/08/22 06:19:45;;;;;;;15.07;5.15;;;;;;;;;;6272265;22;20028;-89
2022/08/22 06:22:14;;;;;;;19.98;6.00;;;;;;;;;;6273756;22;20003;-88
2022/08/22 06:24:40;;;;;;;23.70;6.50;;;;;;;;;;6272751;22;20003;-89
2022/08/22 06:27:10;;;;;;;10.82;4.82;;;;;;;;;;6246979;22;20019;-87
2022/08/22 06:29:37;;;;;;;12.63;5.00;;;;;;;;;;6271790;22;20015;-89
2022/08/22 06:32:09;;;;;;;23.65;6.00;;;;;;;;;;6272314;22;20335;-88
2022/08/22 06:34:41;;;;;;;18.77;5.43;;;;;;;;;;6270927;22;20011;-88
2022/08/22 06:37:09;;;;;;;17.08;5.20;;;;;;;;;;6272166;22;20034;-88
2022/08/22 06:39:38;;;;;;;16.73;5.32;;;;;;;;;;6298467;22;20030;-88
2022/08/22 06:42:07;;;;;;;11.63;5.20;;;;;;;;;;6268308;22;20009;-88
2022/08/22 06:44:35;;;;;;;15.68;4.47;;;;;;;;;;6269868;22;20068;-87
2022/08/22 06:47:04;;;;;;;15.95;4.22;;;;;;;;;;6272012;22;20431;-87
2022/08/22 06:49:33;;;;;;;19.30;5.18;;;;;;;;;;6270834;22;20010;-88
2022/08/22 06:52:00;;;;;;;14.68;4.60;;;;;;;;;;6270170;22;20078;-88
2022/08/22 06:54:27;;;;;;;15.32;4.63;;;;;;;;;;6296843;22;20442;-88
2022/08/22 06:56:54;;;;;;;7.97;4.05;;;;;;;;;;6245566;22;20126;-88
2022/08/22 06:59:23;;;;;;;10.45;4.38;;;;;;;;;;6298183;22;20087;-88
2022/08/22 07:01:57;;;;;;;9.88;4.35;;;;;;;;;;6271062;22;20003;-88
2022/08/22 07:04:25;;;;;;;7.63;3.67;;;;;;;;;;6271721;22;20003;-88
2022/08/22 07:06:52;;;;;;;14.65;4.40;;;;;;;;;;6270470;22;20056;-88
2022/08/22 07:09:26;;;;;;;10.73;4.95;;;;;;;;;;6270054;22;20014;-88
2022/08/22 07:11:54;;;;;;;14.32;4.70;;;;;;;;;;6273507;22;20013;-88
2022/08/22 07:14:48;;;;;;;8.13;4.18;;;;;;;;;;6272782;22;20011;-88
2022/08/22 07:17:32;;;;;;;16.75;4.65;;;;;;;;;;6265470;22;20011;-88
2022/08/22 07:20:05;;;;;;;10.80;4.40;;;;;;;;;;6269542;22;20412;-88
2022/08/22 07:22:33;;;;;;;11.40;4.25;;;;;;;;;;6271583;22;20057;-88
2022/08/22 07:25:06;;;;;;;15.43;4.13;;;;;;;;;;6270161;22;20011;-88
2022/08/22 07:27:36;;;;;;;8.77;3.92;;;;;;;;;;6270810;22;20008;-88
2022/08/22 07:30:08;;;;;;;17.45;3.90;;;;;;;;;;6271003;22;20007;-88
2022/08/22 07:32:53;;;;;;;8.32;4.15;;;;;;;;;;6272002;22;20018;-88
2022/08/22 07:35:20;;;;;;;13.13;3.80;;;;;;;;;;6273462;22;20284;-88
2022/08/22 07:38:03;;;;;;;12.65;4.40;;;;;;;;;;6272759;22;19999;-88
2022/08/22 07:40:32;;;;;;;15.10;4.32;;;;;;;;;;6271457;22;20446;-88
2022/08/22 07:43:05;;;;;;;9.95;3.88;;;;;;;;;;6271618;22;20086;-88
2022/08/22 07:45:40;;;;;;;17.00;5.03;;;;;;;;;;6270376;22;20038;-88
2022/08/22 07:48:12;;;;;;;15.15;3.50;;;;;;;;;;6269686;22;20076;-88
2022/08/22 07:50:44;;;;;;;12.05;4.07;;;;;;;;;;6271941;22;20093;-88
2022/08/22 07:53:27;;;;;;;15.73;3.65;;;;;;;;;;6270046;22;20007;-88
2022/08/22 07:56:01;;;;;;;12.93;4.78;;;;;;;;;;6266040;22;20367;-88
2022/08/22 07:58:29;;;;;;;11.57;3.60;;;;;;;;;;6266725;22;20079;-88
2022/08/22 08:00:56;;;;;;;14.60;3.97;;;;;;;;;;6266418;22;20495;-88
2022/08/22 08:03:23;;;;;;;11.80;4.13;;;;;;;;;;6265585;22;20015;-88
2022/08/22 08:05:50;;;;;;;15.40;3.85;;;;;;;;;;6266743;22;20379;-88
2022/08/22 08:08:27;;;;;;;21.08;4.45;;;;;;;;;;6240336;22;20023;-88
2022/08/22 08:10:55;;;;;;;19.13;4.03;;;;;;;;;;6268092;22;20007;-88
2022/08/22 08:13:24;;;;;;;12.90;3.55;;;;;;;;;;6267293;22;20030;-88
2022/08/22 08:15:51;;;;;;;12.60;3.38;;;;;;;;;;6267494;22;20008;-88
2022/08/22 08:18:20;;;;;;;15.70;3.35;;;;;;;;;;6267011;22;20352;-88
2022/08/22 08:20:51;;;;;;;18.85;4.20;;;;;;;;;;6270740;22;20007;-89
2022/08/22 08:23:18;;;;;;;15.25;3.03;;;;;;;;;;6267171;22;20011;-88
2022/08/22 08:26:08;;;;;;;10.15;3.90;;;;;;;;;;6244033;22;20012;-88
2022/08/22 08:28:38;;;;;;;15.50;4.32;;;;;;;;;;6246039;22;20432;-88
2022/08/22 08:31:07;;;;;;;7.65;3.17;;;;;;;;;;6268998;22;20008;-88
2022/08/22 08:33:35;;;;;;;16.33;2.80;;;;;;;;;;6270842;22;20397;-88
2022/08/22 08:36:25;;;;;;;17.73;3.92;;;;;;;;;;6267768;22;20052;-88
2022/08/22 08:39:13;;;;;;;10.40;2.90;;;;;;;;;;6248311;22;20004;-88
2022/08/22 08:41:52;;;;;;;13.70;3.00;;;;;;;;;;6268401;22;20006;-88
2022/08/22 08:44:26;;;;;;;8.27;3.00;;;;;;;;;;6268130;22;20008;-88
2022/08/22 08:47:01;;;;;;;12.98;3.47;;;;;;;;;;6271519;22;20014;-88
2022/08/22 08:49:41;;;;;;;15.82;4.07;;;;;;;;;;6268630;22;20007;-88
2022/08/22 08:52:07;;;;;;;15.27;4.55;;;;;;;;;;6269122;22;20003;-88
2022/08/22 08:54:54;;;;;;;12.82;3.58;;;;;;;;;;6268619;22;20034;-88
2022/08/22 08:57:39;;;;;;;10.75;3.42;;;;;;;;;;6213043;23;20019;-88
2022/08/22 09:00:11;;;;;;;17.20;3.15;;;;;;;;;;6235537;23;20122;-88
2022/08/22 09:02:59;;;;;;;13.13;3.47;;;;;;;;;;6238078;23;20002;-88
2022/08/22 09:05:49;;;;;;;17.73;3.35;;;;;;;;;;6236900;23;20574;-89
2022/08/22 09:08:33;;;;;;;7.20;2.58;;;;;;;;;;6237831;23;20008;-88
2022/08/22 09:11:18;;;;;;;13.48;3.72;;;;;;;;;;6235460;23;20094;-88
2022/08/22 09:13:44;;;;;;;15.02;3.55;;;;;;;;;;6235568;23;20054;-88
2022/08/22 09:16:13;;;;;;;14.48;3.15;;;;;;;;;;6236288;23;20351;-88
2022/08/22 09:18:39;;;;;;;18.13;3.10;;;;;;;;;;6238019;23;19996;-88
2022/08/22 09:21:08;;;;;;;14.75;3.03;;;;;;;;;;6236808;23;20044;-88
2022/08/22 09:23:40;;;;;;;14.48;3.60;;;;;;;;;;6237110;23;20015;-88
2022/08/22 09:26:18;;;;;;;15.88;2.90;;;;;;;;;;6238550;23;20074;-88
2022/08/22 09:28:58;;;;;;;9.25;3.40;;;;;;;;;;6236886;23;20008;-88
2022/08/22 09:31:30;;;;;;;8.60;2.88;;;;;;;;;;6237873;23;20061;-88
2022/08/22 09:34:05;;;;;;;17.10;4.03;;;;;;;;;;6239597;23;20019;-88
2022/08/22 09:36:48;;;;;;;11.87;3.43;;;;;;;;;;6238018;23;20012;-87
2022/08/22 09:39:16;;;;;;;13.07;3.20;;;;;;;;;;6238242;23;20008;-88
2022/08/22 09:41:45;;;;;;;10.23;3.42;;;;;;;;;;6238326;23;20079;-88
2022/08/22 09:44:23;;;;;;;13.07;3.20;;;;;;;;;;6238469;23;20004;-88
2022/08/22 09:47:06;;;;;;;11.57;3.40;;;;;;;;;;6237789;23;20695;-88
2022/08/22 09:50:04;;;;;;;11.93;3.30;;;;;;;;;;6238720;23;20634;-88
2022/08/22 09:52:49;;;;;;;11.45;3.13;;;;;;;;;;6172189;23;20036;-88
2022/08/22 09:55:15;;;;;;;12.60;3.60;;;;;;;;;;6244861;22;20018;-88
2022/08/22 09:57:52;;;;;;;12.43;2.85;;;;;;;;;;6273731;22;20008;-88
2022/08/22 10:00:24;;;;;;;9.77;3.33;;;;;;;;;;6273930;22;20003;-88
2022/08/22 10:02:56;;;;;;;9.25;2.70;;;;;;;;;;6300596;22;19999;-88
2022/08/22 10:05:41;;;;;;;12.93;3.15;;;;;;;;;;6274055;22;20007;-88
2022/08/22 10:08:13;;;;;;;11.30;2.85;;;;;;;;;;6274869;22;20095;-88
2022/08/22 10:10:49;;;;;;;10.73;2.95;;;;;;;;;;6273329;22;20003;-88
2022/08/22 10:13:18;;;;;;;7.43;2.58;;;;;;;;;;6272608;22;20011;-88
2022/08/22 10:15:44;;;;;;;9.43;2.60;;;;;;;;;;6273589;22;20003;-88
2022/08/22 10:18:17;;;;;;;7.75;3.25;;;;;;;;;;6273315;22;20014;-87
2022/08/22 10:21:02;;;;;;;9.20;2.75;;;;;;;;;;6273496;22;20014;-88
2022/08/22 10:23:44;;;;;;;11.32;3.67;;;;;;;;;;6273551;22;20035;-88
2022/08/22 10:26:10;;;;;;;9.40;2.95;;;;;;;;;;6272393;22;20042;-87
2022/08/22 10:28:42;;;;;;;9.35;3.05;;;;;;;;;;6272299;22;20007;-87
2022/08/22 10:31:08;;;;;;;8.65;3.08;;;;;;;;;;6271709;22;20012;-87
2022/08/22 10:33:54;;;;;;;9.43;2.72;;;;;;;;;;6273092;22;20015;-90
2022/08/22 10:36:25;;;;;;;6.85;2.72;;;;;;;;;;6272067;22;20064;-89
2022/08/22 10:38:53;;;;;;;14.52;2.97;;;;;;;;;;6270645;22;20556;-89
2022/08/22 10:41:25;;;;;;;5.72;2.45;;;;;;;;;;6273198;22;20113;-89
2022/08/22 10:43:55;;;;;;;10.23;2.97;;;;;;;;;;6271047;22;20450;-89
2022/08/22 10:46:34;;;;;;;14.90;3.70;;;;;;;;;;6299547;22;20042;-89
2022/08/22 10:49:01;;;;;;;8.23;2.95;;;;;;;;;;6270797;22;20011;-90
2022/08/22 10:51:28;;;;;;;7.50;2.50;;;;;;;;;;6274800;22;20396;-89
2022/08/22 10:54:20;;;;;;;12.95;3.20;;;;;;;;;;6272694;22;20030;-88
2022/08/22 10:56:46;;;;;;;10.75;2.97;;;;;;;;;;6190912;23;20751;-88
2022/08/22 10:59:24;;;;;;;6.82;2.90;;;;;;;;;;6237324;23;20008;-88
2022/08/22 11:02:09;;;;;;;9.65;3.42;;;;;;;;;;6236476;23;20030;-88
2022/08/22 11:04:50;;;;;;;5.53;2.85;;;;;;;;;;6236889;23;20018;-88
2022/08/22 11:07:19;;;;;;;8.45;2.88;;;;;;;;;;6237532;23;20091;-88
2022/08/22 11:09:51;;;;;;;15.25;3.55;;;;;;;;;;6236764;23;20003;-87
2022/08/22 11:12:22;;;;;;;7.57;3.85;;;;;;;;;;6237287;23;20054;-87
2022/08/22 11:15:23;;;;;;;15.07;2.72;;;;;;;;;;6235011;23;20011;-88
2022/08/22 11:18:05;;;;;;;7.07;2.80;;;;;;;;;;6179138;23;20016;-88
2022/08/22 11:20:44;;;;;;;7.45;3.13;;;;;;;;;;6232395;23;20031;-88
2022/08/22 11:23:10;;;;;;;8.82;3.42;;;;;;;;;;6234743;23;20448;-87
2022/08/22 11:25:45;;;;;;;7.13;2.83;;;;;;;;;;6233575;23;20018;-88
2022/08/22 11:28:17;;;;;;;7.07;2.72;;;;;;;;;;6236115;23;20443;-87
2022/08/22 11:30:54;;;;;;;9.85;3.10;;;;;;;;;;6234616;23;20428;-88
2022/08/22 11:33:39;;;;;;;12.40;2.70;;;;;;;;;;6238749;23;20000;-88
2022/08/22 11:36:11;;;;;;;7.03;2.53;;;;;;;;;;6237189;23;20459;-87
2022/08/22 11:38:42;;;;;;;12.00;2.90;;;;;;;;;;6237433;23;20010;-88
2022/08/22 11:41:28;;;;;;;6.43;3.08;;;;;;;;;;6234884;23;20037;-88
2022/08/22 11:44:02;;;;;;;8.65;3.13;;;;;;;;;;6227447;23;20065;-88
2022/08/22 11:46:39;;;;;;;8.00;3.03;;;;;;;;;;6239093;23;20061;-87
2022/08/22 11:49:14;;;;;;;9.98;3.03;;;;;;;;;;6238092;23;20030;-88
2022/08/22 11:51:58;;;;;;;8.25;3.25;;;;;;;;;;6237381;23;20012;-88
2022/08/22 11:54:45;;;;;;;11.52;2.70;;;;;;;;;;6238705;23;20435;-88
2022/08/22 11:57:20;;;;;;;6.68;2.55;;;;;;;;;;6264647;22;20119;-88
2022/08/22 12:00:00;;;;;;;7.65;2.78;;;;;;;;;;6267966;22;20000;-88
2022/08/22 12:02:35;;;;;;;5.43;2.35;;;;;;;;;;6269166;22;20057;-88
2022/08/22 12:05:09;;;;;;;11.63;2.85;;;;;;;;;;6267616;22;20014;-87
2022/08/22 12:07:38;;;;;;;11.10;2.40;;;;;;;;;;6268752;22;20095;-88
2022/08/22 12:10:22;;;;;;;7.07;2.35;;;;;;;;;;6267278;22;20012;-88
2022/08/22 12:13:09;;;;;;;9.43;2.70;;;;;;;;;;6268332;22;20012;-88
2022/08/22 12:15:45;;;;;;;9.52;2.60;;;;;;;;;;6268688;22;20511;-88
2022/08/22 12:18:10;;;;;;;;;;;;;;;;;;6268264;22;20003;-88
2022/08/22 12:20:49;;;;;;;9.85;2.95;;;;;;;;;;6268697;22;19981;-88
2022/08/22 12:23:40;;;;;;;6.35;2.28;;;;;;;;;;6268869;22;20035;-87
2022/08/22 12:26:10;;;;;;;7.63;2.60;;;;;;;;;;6266511;22;20084;-87
2022/08/22 12:28:55;;;;;;;6.38;2.25;;;;;;;;;;6268583;22;20081;-88
2022/08/22 12:31:33;;;;;;;10.18;2.17;;;;;;;;;;6265648;22;20004;-88
2022/08/22 12:34:11;;;;;;;7.32;2.40;;;;;;;;;;6268800;22;20015;-87
2022/08/22 12:36:46;;;;;;;6.13;2.30;;;;;;;;;;6266292;22;20391;-88
2022/08/22 12:39:31;;;;;;;8.55;2.75;;;;;;;;;;6268900;22;20010;-88
2022/08/22 12:42:15;;;;;;;6.03;2.20;;;;;;;;;;6267016;22;20008;-87
2022/08/22 12:44:55;;;;;;;7.97;2.80;;;;;;;;;;6266226;22;20034;-87
2022/08/22 12:47:38;;;;;;;8.48;2.50;;;;;;;;;;6266470;22;20057;-87
2022/08/22 12:50:16;;;;;;;13.05;2.70;;;;;;;;;;6268527;22;20447;-87
2022/08/22 12:52:52;;;;;;;8.38;2.50;;;;;;;;;;6265121;22;20085;-88
2022/08/22 12:55:37;;;;;;;9.50;2.47;;;;;;;;;;6266242;22;20444;-87
2022/08/22 12:58:03;;;;;;;4.15;2.10;;;;;;;;;;6265528;22;20101;-87
2022/08/22 13:00:30;;;;;;;5.60;2.13;;;;;;;;;;6269168;22;20394;-88
2022/08/22 13:02:58;;;;;;;8.30;2.22;;;;;;;;;;6268781;22;20003;-87
2022/08/22 13:05:27;;;;;;;4.40;2.13;;;;;;;;;;6267616;22;20010;-87
2022/08/22 13:07:58;;;;;;;10.77;2.47;;;;;;;;;;6267983;22;20049;-88
2022/08/22 13:10:45;;;;;;;5.30;1.92;;;;;;;;;;6267419;22;20053;-87
2022/08/22 13:13:13;;;;;;;5.20;2.00;;;;;;;;;;6266189;22;20014;-88
2022/08/22 13:16:06;;;;;;;4.82;2.15;;;;;;;;;;6267932;22;20018;-88
2022/08/22 13:18:50;;;;;;;5.47;2.17;;;;;;;;;;6256141;22;20445;-88
2022/08/22 13:21:17;;;;;;;11.00;2.47;;;;;;;;;;6267021;22;20007;-89
2022/08/22 13:23:52;;;;;;;8.98;2.58;;;;;;;;;;6267714;22;20047;-89
2022/08/22 13:26:22;;;;;;;7.63;2.42;;;;;;;;;;6266190;22;20450;-89
2022/08/22 13:28:54;;;;;;;6.43;2.13;;;;;;;;;;6268321;22;20013;-88
2022/08/22 13:31:26;;;;;;;6.80;2.72;;;;;;;;;;6266854;22;20440;-89
2022/08/22 13:33:57;;;;;;;6.72;2.10;;;;;;;;;;6268400;22;20008;-88
2022/08/22 13:36:23;;;;;;;7.05;2.40;;;;;;;;;;6266363;22;20012;-88
2022/08/22 13:39:02;;;;;;;7.13;2.25;;;;;;;;;;6268198;22;20014;-88
2022/08/22 13:41:30;;;;;;;4.95;2.25;;;;;;;;;;6268026;22;20012;-88
2022/08/22 13:44:12;;;;;;;9.23;2.30;;;;;;;;;;6267861;22;20008;-89
2022/08/22 13:46:38;;;;;;;5.82;2.42;;;;;;;;;;6266875;22;20340;-88
2022/08/22 13:49:06;;;;;;;6.18;2.17;;;;;;;;;;6242990;22;20725;-88
2022/08/22 13:51:35;;;;;;;8.30;2.30;;;;;;;;;;6265131;22;20501;-88
2022/08/22 13:54:10;;;;;;;9.95;2.50;;;;;;;;;;6268136;22;20004;-89
2022/08/22 13:56:49;;;;;;;6.07;2.15;;;;;;;;;;6265873;22;20098;-89
2022/08/22 13:59:30;;;;;;;5.40;2.08;;;;;;;;;;6267244;22;20007;-88
2022/08/22 14:01:58;;;;;;;5.85;2.33;;;;;;;;;;6266893;22;20529;-88
2022/08/22 14:04:24;;;;;;;10.25;2.50;;;;;;;;;;6267437;22;20415;-88
2022/08/22 14:07:03;;;;;;;8.98;2.47;;;;;;;;;;6266888;22;20007;-88
2022/08/22 14:09:47;;;;;;;6.95;2.47;;;;;;;;;;6267437;22;20007;-89
2022/08/22 14:12:19;;;;;;;8.98;2.05;;;;;;;;;;6267064;22;20437;-88
2022/08/22 14:14:47;;;;;;;6.20;1.70;;;;;;;;;;6266087;22;20347;-88
2022/08/22 14:17:18;;;;;;;8.05;2.75;;;;;;;;;;6267059;22;20011;-88
2022/08/22 14:19:50;;;;;;;6.63;2.50;;;;;;;;;;6267427;22;20008;-89
2022/08/22 14:22:20;;;;;;;11.57;2.72;;;;;;;;;;6263747;22;20010;-88
2022/08/22 14:24:52;;;;;;;6.55;2.65;;;;;;;;;;6266961;22;20398;-88
2022/08/22 14:27:27;;;;;;;7.30;2.20;;;;;;;;;;6265970;22;20500;-88
2022/08/22 14:29:55;;;;;;;5.63;2.20;;;;;;;;;;6266114;22;20077;-88
2022/08/22 14:32:21;;;;;;;7.05;2.35;;;;;;;;;;6267432;22;20501;-88
2022/08/22 14:34:49;;;;;;;7.90;2.20;;;;;;;;;;6266513;22;20102;-88
2022/08/22 14:37:17;;;;;;;7.13;2.20;;;;;;;;;;6266949;22;20008;-89
2022/08/22 14:39:47;;;;;;;9.52;2.40;;;;;;;;;;6266801;22;20014;-88
2022/08/22 14:42:17;;;;;;;7.03;2.40;;;;;;;;;;6265704;22;20440;-88
2022/08/22 14:45:02;;;;;;;10.15;3.80;;;;;;;;;;6266685;22;20019;-88
2022/08/22 14:47:35;;;;;;;10.20;2.72;;;;;;;;;;6265326;22;20066;-88
2022/08/22 14:50:08;;;;;;;8.48;2.30;;;;;;;;;;6267085;22;20432;-89
2022/08/22 14:52:40;;;;;;;7.20;2.45;;;;;;;;;;6264230;22;20008;-88
2022/08/22 14:55:09;;;;;;;10.27;2.42;;;;;;;;;;6269220;22;20031;-88
2022/08/22 14:57:36;;;;;;;8.85;3.08;;;;;;;;;;6266016;22;20022;-88
2022/08/22 15:00:10;;;;;;;5.45;2.60;;;;;;;;;;6266357;22;20014;-88
2022/08/22 15:02:36;;;;;;;7.95;2.90;;;;;;;;;;6266955;22;20004;-88
2022/08/22 15:05:12;;;;;;;13.88;3.33;;;;;;;;;;6265836;22;20008;-88
2022/08/22 15:07:38;;;;;;;8.20;2.75;;;;;;;;;;6267119;22;20007;-88
2022/08/22 15:10:09;;;;;;;9.38;3.15;;;;;;;;;;6266717;22;20372;-89
2022/08/22 15:12:55;;;;;;;5.78;2.15;;;;;;;;;;6266615;22;20018;-88
2022/08/22 15:15:33;;;;;;;5.53;2.50;;;;;;;;;;6267485;22;20011;-88
2022/08/22 15:18:00;;;;;;;8.32;2.47;;;;;;;;;;6269264;22;20004;-88
2022/08/22 15:20:34;;;;;;;11.35;2.53;;;;;;;;;;6265605;22;20110;-88